sensor_id;sensor_type;location;lat;lon;timestamp;pressure;altitude;pressure_sealevel;temperature;humidity
5703;BME280;2876;51.738;10.050;2023-03-20T00:00:48;99358.56;;;10.72;100.00
5703;BME280;2876;51.738;10.050;2023-03-20T00:06:51;99371.88;;;10.52;100.00
5703;BME280;2876;51.738;10.050;2023-03-20T00:12:53;99375.38;;;10.53;100.00
5703;BME280;2876;51.738;10.050;2023-03-20T00:18:55;99373.56;;;10.60;100.00
5703;BME280;2876;51.738;10.050;2023-03-20T00:24:57;99380.72;;;10.53;100.00
5703;BME280;2876;51.738;10.050;2023-03-20T00:30:59;99374.81;;;10.64;100.00
5703;BME280;2876;51.738;10.050;2023-03-20T00:37:01;99371.69;;;10.60;100.00
5703;BME280;2876;51.738;10.050;2023-03-20T00:43:03;99370.41;;;10.50;100.00
5703;BME280;2876;51.738;10.050;2023-03-20T00:49:05;99365.06;;;10.50;100.00
5703;BME280;2876;51.738;10.050;2023-03-20T00:55:08;99358.44;;;10.52;100.00
5703;BME280;2876;51.738;10.050;2023-03-20T01:01:10;99360.63;;;10.35;100.00
5703;BME280;2876;51.738;10.050;2023-03-20T01:07:13;99358.16;;;10.34;100.00
5703;BME280;2876;51.738;10.050;2023-03-20T01:13:29;99356.44;;;10.26;100.00
5703;BME280;2876;51.738;10.050;2023-03-20T01:19:32;99363.88;;;10.31;100.00
5703;BME280;2876;51.738;10.050;2023-03-20T01:25:35;99364.75;;;10.31;100.00
5703;BME280;2876;51.738;10.050;2023-03-20T01:31:37;99371.19;;;10.44;100.00
5703;BME280;2876;51.738;10.050;2023-03-20T01:37:39;99366.13;;;10.62;100.00
5703;BME280;2876;51.738;10.050;2023-03-20T01:43:44;99374.22;;;10.69;100.00
5703;BME280;2876;51.738;10.050;2023-03-20T01:50:24;99373.41;;;10.68;100.00
5703;BME280;2876;51.738;10.050;2023-03-20T01:56:31;99368.03;;;10.68;100.00
5703;BME280;2876;51.738;10.050;2023-03-20T02:02:33;99367.66;;;10.78;100.00
5703;BME280;2876;51.738;10.050;2023-03-20T02:08:46;99374.47;;;10.80;100.00
5703;BME280;2876;51.738;10.050;2023-03-20T02:14:49;99383.81;;;10.91;100.00
5703;BME280;2876;51.738;10.050;2023-03-20T02:34:51;99386.97;;;11.08;100.00
5703;BME280;2876;51.738;10.050;2023-03-20T02:48:03;99398.00;;;11.33;100.00
5703;BME280;2876;51.738;10.050;2023-03-20T03:01:14;99425.13;;;11.03;100.00
5703;BME280;2876;51.738;10.050;2023-03-20T03:07:21;99429.50;;;11.11;100.00
5703;BME280;2876;51.738;10.050;2023-03-20T03:13:28;99438.22;;;11.20;100.00
5703;BME280;2876;51.738;10.050;2023-03-20T03:19:34;99437.72;;;11.03;99.29
5703;BME280;2876;51.738;10.050;2023-03-20T03:25:40;99440.69;;;10.73;98.04
5703;BME280;2876;51.738;10.050;2023-03-20T03:31:43;99439.34;;;10.56;97.55
5703;BME280;2876;51.738;10.050;2023-03-20T03:45:18;99442.31;;;10.39;97.92
5703;BME280;2876;51.738;10.050;2023-03-20T03:51:01;99432.75;;;10.30;98.20
5703;BME280;2876;51.738;10.050;2023-03-20T03:57:07;99438.25;;;10.22;98.69
5703;BME280;2876;51.738;10.050;2023-03-20T04:03:11;99446.84;;;10.39;98.27
5703;BME280;2876;51.738;10.050;2023-03-20T04:09:13;99452.22;;;10.39;98.24
5703;BME280;2876;51.738;10.050;2023-03-20T04:15:16;99464.06;;;10.51;97.56
5703;BME280;2876;51.738;10.050;2023-03-20T04:21:18;99464.66;;;10.47;98.19
5703;BME280;2876;51.738;10.050;2023-03-20T04:27:21;99464.53;;;10.27;98.55
5703;BME280;2876;51.738;10.050;2023-03-20T04:33:24;99469.56;;;10.43;96.05
5703;BME280;2876;51.738;10.050;2023-03-20T04:39:26;99471.13;;;10.09;97.21
5703;BME280;2876;51.738;10.050;2023-03-20T04:45:28;99460.88;;;10.13;97.26
5703;BME280;2876;51.738;10.050;2023-03-20T04:51:30;99452.56;;;10.29;96.79
5703;BME280;2876;51.738;10.050;2023-03-20T04:57:32;99441.78;;;10.01;96.95
5703;BME280;2876;51.738;10.050;2023-03-20T05:03:34;99431.69;;;10.03;97.08
5703;BME280;2876;51.738;10.050;2023-03-20T05:09:36;99420.88;;;9.90;97.06
5703;BME280;2876;51.738;10.050;2023-03-20T05:15:38;99427.66;;;9.86;96.93
5703;BME280;2876;51.738;10.050;2023-03-20T05:21:40;99429.09;;;9.88;96.70
5703;BME280;2876;51.738;10.050;2023-03-20T05:27:45;99437.84;;;9.76;96.13
5703;BME280;2876;51.738;10.050;2023-03-20T05:33:47;99436.84;;;9.55;97.35
5703;BME280;2876;51.738;10.050;2023-03-20T05:39:49;99435.13;;;9.69;97.17
5703;BME280;2876;51.738;10.050;2023-03-20T05:45:51;99442.94;;;9.71;97.87
5703;BME280;2876;51.738;10.050;2023-03-20T05:51:53;99453.28;;;9.95;97.52
5703;BME280;2876;51.738;10.050;2023-03-20T05:57:55;99447.19;;;10.08;97.35
5703;BME280;2876;51.738;10.050;2023-03-20T06:03:56;99439.59;;;10.11;96.65
5703;BME280;2876;51.738;10.050;2023-03-20T06:09:58;99433.22;;;10.34;96.41
5703;BME280;2876;51.738;10.050;2023-03-20T06:16:01;99437.13;;;10.66;96.05
5703;BME280;2876;51.738;10.050;2023-03-20T06:22:03;99439.06;;;10.79;95.10
5703;BME280;2876;51.738;10.050;2023-03-20T06:28:05;99446.38;;;10.98;93.96
5703;BME280;2876;51.738;10.050;2023-03-20T06:34:07;99455.69;;;10.96;92.66
5703;BME280;2876;51.738;10.050;2023-03-20T06:40:09;99457.47;;;10.88;91.62
5703;BME280;2876;51.738;10.050;2023-03-20T06:46:12;99456.88;;;10.93;91.38
5703;BME280;2876;51.738;10.050;2023-03-20T06:52:18;99453.16;;;10.87;91.45
5703;BME280;2876;51.738;10.050;2023-03-20T06:58:23;99465.97;;;10.92;91.31
5703;BME280;2876;51.738;10.050;2023-03-20T07:04:25;99473.38;;;10.90;91.04
5703;BME280;2876;51.738;10.050;2023-03-20T07:10:28;99477.06;;;10.82;90.88
5703;BME280;2876;51.738;10.050;2023-03-20T07:16:30;99496.81;;;10.75;90.93
5703;BME280;2876;51.738;10.050;2023-03-20T07:22:32;99498.81;;;10.66;91.87
5703;BME280;2876;51.738;10.050;2023-03-20T07:28:35;99499.97;;;10.50;93.43
5703;BME280;2876;51.738;10.050;2023-03-20T07:34:37;99502.44;;;10.52;93.72
5703;BME280;2876;51.738;10.050;2023-03-20T07:40:38;99502.91;;;10.62;94.20
5703;BME280;2876;51.738;10.050;2023-03-20T07:46:40;99515.25;;;10.56;95.01
5703;BME280;2876;51.738;10.050;2023-03-20T07:52:47;99514.28;;;10.36;95.96
5703;BME280;2876;51.738;10.050;2023-03-20T07:58:50;99502.28;;;10.32;96.29
5703;BME280;2876;51.738;10.050;2023-03-20T08:04:51;99504.97;;;10.60;96.11
5703;BME280;2876;51.738;10.050;2023-03-20T08:10:53;99512.31;;;10.45;96.18
5703;BME280;2876;51.738;10.050;2023-03-20T08:16:56;99516.84;;;10.72;94.75
5703;BME280;2876;51.738;10.050;2023-03-20T08:23:16;99513.78;;;11.16;93.34
5703;BME280;2876;51.738;10.050;2023-03-20T08:29:21;99514.59;;;11.17;92.23
5703;BME280;2876;51.738;10.050;2023-03-20T08:35:24;99505.72;;;11.10;90.57
5703;BME280;2876;51.738;10.050;2023-03-20T08:41:36;99514.00;;;11.15;89.25
5703;BME280;2876;51.738;10.050;2023-03-20T08:47:47;99516.38;;;11.03;89.40
5703;BME280;2876;51.738;10.050;2023-03-20T08:53:52;99517.09;;;10.84;90.10
5703;BME280;2876;51.738;10.050;2023-03-20T08:59:54;99524.63;;;10.95;89.11
5703;BME280;2876;51.738;10.050;2023-03-20T09:05:56;99521.66;;;11.18;87.49
5703;BME280;2876;51.738;10.050;2023-03-20T09:11:59;99536.59;;;11.34;85.98
5703;BME280;2876;51.738;10.050;2023-03-20T09:18:01;99530.66;;;11.45;84.87
5703;BME280;2876;51.738;10.050;2023-03-20T09:24:05;99533.25;;;11.25;84.74
5703;BME280;2876;51.738;10.050;2023-03-20T09:30:09;99531.22;;;11.34;84.73
5703;BME280;2876;51.738;10.050;2023-03-20T09:36:11;99541.13;;;11.33;85.18
5703;BME280;2876;51.738;10.050;2023-03-20T09:55:52;99542.31;;;11.17;85.42
5703;BME280;2876;51.738;10.050;2023-03-20T10:02:48;99541.97;;;11.34;84.85
5703;BME280;2876;51.738;10.050;2023-03-20T10:08:50;99541.59;;;11.43;85.37
5703;BME280;2876;51.738;10.050;2023-03-20T10:15:00;99543.50;;;11.56;82.76
5703;BME280;2876;51.738;10.050;2023-03-20T10:21:10;99542.91;;;11.61;81.32
5703;BME280;2876;51.738;10.050;2023-03-20T10:27:25;99542.16;;;11.32;81.33
5703;BME280;2876;51.738;10.050;2023-03-20T10:40:36;99521.97;;;11.43;79.84
5703;BME280;2876;51.738;10.050;2023-03-20T10:46:45;99528.38;;;11.90;79.36
5703;BME280;2876;51.738;10.050;2023-03-20T10:52:51;99524.09;;;12.22;77.49
5703;BME280;2876;51.738;10.050;2023-03-20T10:59:09;99530.06;;;12.44;73.96
5703;BME280;2876;51.738;10.050;2023-03-20T11:05:33;99523.84;;;12.10;72.04
5703;BME280;2876;51.738;10.050;2023-03-20T11:11:38;99525.38;;;11.72;73.26
5703;BME280;2876;51.738;10.050;2023-03-20T11:18:01;99519.16;;;11.71;70.74
5703;BME280;2876;51.738;10.050;2023-03-20T11:24:04;99521.97;;;11.91;70.30
5703;BME280;2876;51.738;10.050;2023-03-20T11:30:13;99520.97;;;12.25;69.68
5703;BME280;2876;51.738;10.050;2023-03-20T11:36:24;99503.38;;;12.56;69.18
5703;BME280;2876;51.738;10.050;2023-03-20T11:42:29;99503.59;;;12.67;67.96
5703;BME280;2876;51.738;10.050;2023-03-20T11:48:43;99493.00;;;12.79;66.95
5703;BME280;2876;51.738;10.050;2023-03-20T11:54:51;99489.91;;;12.82;67.98
5703;BME280;2876;51.738;10.050;2023-03-20T12:00:56;99473.03;;;13.27;65.41
5703;BME280;2876;51.738;10.050;2023-03-20T12:07:28;99462.66;;;14.00;62.68
5703;BME280;2876;51.738;10.050;2023-03-20T12:13:36;99459.69;;;14.33;59.77
5703;BME280;2876;51.738;10.050;2023-03-20T12:19:41;99454.38;;;14.27;61.84
5703;BME280;2876;51.738;10.050;2023-03-20T12:26:27;99455.13;;;13.45;63.49
5703;BME280;2876;51.738;10.050;2023-03-20T12:32:43;99448.81;;;13.07;64.97
5703;BME280;2876;51.738;10.050;2023-03-20T12:38:47;99433.91;;;13.56;63.87
5703;BME280;2876;51.738;10.050;2023-03-20T13:04:16;99429.69;;;16.94;51.92
5703;BME280;2876;51.738;10.050;2023-03-20T13:10:23;99424.06;;;16.37;53.76
5703;BME280;2876;51.738;10.050;2023-03-20T13:16:50;99410.72;;;15.28;53.31
5703;BME280;2876;51.738;10.050;2023-03-20T13:36:31;99411.72;;;15.15;53.50
5703;BME280;2876;51.738;10.050;2023-03-20T13:43:05;99394.59;;;15.52;53.65
5703;BME280;2876;51.738;10.050;2023-03-20T13:49:36;99397.19;;;15.88;52.68
5703;BME280;2876;51.738;10.050;2023-03-20T13:55:59;99384.97;;;15.56;51.78
5703;BME280;2876;51.738;10.050;2023-03-20T14:08:52;99405.81;;;16.56;49.67
5703;BME280;2876;51.738;10.050;2023-03-20T14:14:58;99385.81;;;16.45;50.50
5703;BME280;2876;51.738;10.050;2023-03-20T14:21:12;99383.75;;;15.70;52.12
5703;BME280;2876;51.738;10.050;2023-03-20T14:27:18;99378.19;;;15.35;52.49
5703;BME280;2876;51.738;10.050;2023-03-20T14:33:43;99378.06;;;14.63;55.07
5703;BME280;2876;51.738;10.050;2023-03-20T14:40:10;99374.44;;;14.26;56.45
5703;BME280;2876;51.738;10.050;2023-03-20T14:59:04;99370.63;;;13.65;57.68
5703;BME280;2876;51.738;10.050;2023-03-20T15:05:27;99381.16;;;13.41;57.98
5703;BME280;2876;51.738;10.050;2023-03-20T15:11:32;99376.75;;;13.09;59.14
5703;BME280;2876;51.738;10.050;2023-03-20T15:17:43;99384.69;;;12.84;59.76
5703;BME280;2876;51.738;10.050;2023-03-20T15:23:46;99381.25;;;12.57;61.07
5703;BME280;2876;51.738;10.050;2023-03-20T15:29:54;99385.41;;;12.53;61.78
5703;BME280;2876;51.738;10.050;2023-03-20T15:35:57;99379.44;;;12.37;61.30
5703;BME280;2876;51.738;10.050;2023-03-20T15:42:03;99381.34;;;12.24;62.17
5703;BME280;2876;51.738;10.050;2023-03-20T15:48:14;99381.13;;;11.99;62.24
5703;BME280;2876;51.738;10.050;2023-03-20T15:54:17;99371.00;;;11.74;62.63
5703;BME280;2876;51.738;10.050;2023-03-20T16:00:33;99378.84;;;11.76;63.31
5703;BME280;2876;51.738;10.050;2023-03-20T16:06:54;99372.63;;;11.62;64.63
5703;BME280;2876;51.738;10.050;2023-03-20T16:12:56;99371.59;;;11.56;64.32
5703;BME280;2876;51.738;10.050;2023-03-20T16:18:59;99379.41;;;11.38;65.38
5703;BME280;2876;51.738;10.050;2023-03-20T16:25:01;99377.09;;;11.22;66.00
5703;BME280;2876;51.738;10.050;2023-03-20T16:31:17;99377.06;;;11.08;67.71
5703;BME280;2876;51.738;10.050;2023-03-20T16:37:37;99387.59;;;11.16;67.09
5703;BME280;2876;51.738;10.050;2023-03-20T16:43:48;99402.63;;;10.98;67.53
5703;BME280;2876;51.738;10.050;2023-03-20T16:55:55;99409.41;;;10.93;68.91
5703;BME280;2876;51.738;10.050;2023-03-20T17:01:59;99406.59;;;10.67;69.77
5703;BME280;2876;51.738;10.050;2023-03-20T17:08:05;99401.50;;;10.72;70.00
5703;BME280;2876;51.738;10.050;2023-03-20T17:14:12;99411.69;;;10.55;71.60
5703;BME280;2876;51.738;10.050;2023-03-20T17:20:26;99409.41;;;10.52;71.00
5703;BME280;2876;51.738;10.050;2023-03-20T17:26:28;99420.56;;;10.56;71.50
5703;BME280;2876;51.738;10.050;2023-03-20T17:32:31;99424.97;;;10.35;72.78
5703;BME280;2876;51.738;10.050;2023-03-20T17:38:34;99426.00;;;10.34;73.25
5703;BME280;2876;51.738;10.050;2023-03-20T17:44:36;99428.28;;;10.37;74.14
5703;BME280;2876;51.738;10.050;2023-03-20T17:50:38;99432.47;;;10.19;73.20
5703;BME280;2876;51.738;10.050;2023-03-20T17:56:40;99434.38;;;10.25;73.63
5703;BME280;2876;51.738;10.050;2023-03-20T18:02:42;99423.28;;;10.28;73.55
5703;BME280;2876;51.738;10.050;2023-03-20T18:08:44;99416.72;;;10.09;74.68
5703;BME280;2876;51.738;10.050;2023-03-20T18:14:47;99427.28;;;10.17;73.45
5703;BME280;2876;51.738;10.050;2023-03-20T18:20:49;99428.72;;;10.13;72.72
5703;BME280;2876;51.738;10.050;2023-03-20T18:26:53;99442.06;;;10.34;71.69
5703;BME280;2876;51.738;10.050;2023-03-20T18:32:55;99439.03;;;9.95;73.68
5703;BME280;2876;51.738;10.050;2023-03-20T18:38:58;99441.47;;;10.11;72.36
5703;BME280;2876;51.738;10.050;2023-03-20T18:45:00;99434.25;;;10.11;72.44
5703;BME280;2876;51.738;10.050;2023-03-20T18:51:02;99440.06;;;10.15;71.95
5703;BME280;2876;51.738;10.050;2023-03-20T18:57:04;99451.81;;;9.93;73.13
5703;BME280;2876;51.738;10.050;2023-03-20T19:03:07;99439.94;;;10.02;73.35
5703;BME280;2876;51.738;10.050;2023-03-20T19:09:11;99434.53;;;9.95;73.85
5703;BME280;2876;51.738;10.050;2023-03-20T19:15:13;99434.00;;;9.85;74.42
5703;BME280;2876;51.738;10.050;2023-03-20T19:21:14;99430.63;;;9.98;75.13
5703;BME280;2876;51.738;10.050;2023-03-20T19:27:16;99428.59;;;10.00;75.00
5703;BME280;2876;51.738;10.050;2023-03-20T19:33:19;99415.91;;;9.87;75.26
5703;BME280;2876;51.738;10.050;2023-03-20T19:39:21;99423.53;;;9.90;76.26
5703;BME280;2876;51.738;10.050;2023-03-20T19:45:26;99428.75;;;10.20;73.58
5703;BME280;2876;51.738;10.050;2023-03-20T19:51:30;99422.78;;;9.96;74.87
5703;BME280;2876;51.738;10.050;2023-03-20T19:57:32;99423.72;;;10.10;73.16
5703;BME280;2876;51.738;10.050;2023-03-20T20:03:34;99421.31;;;9.94;74.68
5703;BME280;2876;51.738;10.050;2023-03-20T20:09:37;99418.47;;;9.95;74.02
5703;BME280;2876;51.738;10.050;2023-03-20T20:15:39;99422.72;;;9.89;74.79
5703;BME280;2876;51.738;10.050;2023-03-20T20:21:41;99425.03;;;9.93;74.79
5703;BME280;2876;51.738;10.050;2023-03-20T20:28:06;99430.28;;;10.07;74.72
5703;BME280;2876;51.738;10.050;2023-03-20T20:34:08;99428.63;;;10.06;74.45
5703;BME280;2876;51.738;10.050;2023-03-20T20:40:30;99422.72;;;9.89;74.85
5703;BME280;2876;51.738;10.050;2023-03-20T20:46:32;99428.47;;;9.86;75.01
5703;BME280;2876;51.738;10.050;2023-03-20T20:52:36;99428.28;;;9.66;75.62
5703;BME280;2876;51.738;10.050;2023-03-20T20:58:42;99429.75;;;9.69;76.21
5703;BME280;2876;51.738;10.050;2023-03-20T21:04:44;99433.59;;;9.60;76.94
5703;BME280;2876;51.738;10.050;2023-03-20T21:10:47;99438.03;;;9.53;77.43
5703;BME280;2876;51.738;10.050;2023-03-20T21:16:49;99440.53;;;9.54;77.54
5703;BME280;2876;51.738;10.050;2023-03-20T21:22:51;99440.94;;;9.36;78.92
5703;BME280;2876;51.738;10.050;2023-03-20T21:28:53;99444.47;;;9.37;78.99
5703;BME280;2876;51.738;10.050;2023-03-20T21:34:55;99443.53;;;9.30;80.06
5703;BME280;2876;51.738;10.050;2023-03-20T21:41:06;99438.69;;;9.19;81.59
5703;BME280;2876;51.738;10.050;2023-03-20T21:47:09;99447.53;;;9.19;83.32
5703;BME280;2876;51.738;10.050;2023-03-20T21:53:30;99441.66;;;8.94;84.37
5703;BME280;2876;51.738;10.050;2023-03-20T21:59:52;99437.34;;;8.78;85.14
5703;BME280;2876;51.738;10.050;2023-03-20T22:06:15;99431.44;;;8.98;85.20
5703;BME280;2876;51.738;10.050;2023-03-20T22:12:37;99438.06;;;9.02;84.86
5703;BME280;2876;51.738;10.050;2023-03-20T22:18:58;99437.69;;;9.05;84.80
5703;BME280;2876;51.738;10.050;2023-03-20T22:25:20;99432.50;;;9.18;84.56
5703;BME280;2876;51.738;10.050;2023-03-20T22:31:42;99435.34;;;9.17;84.97
5703;BME280;2876;51.738;10.050;2023-03-20T22:38:09;99435.09;;;9.11;84.91
5703;BME280;2876;51.738;10.050;2023-03-20T22:44:31;99435.56;;;9.15;85.07
5703;BME280;2876;51.738;10.050;2023-03-20T22:50:53;99429.22;;;9.01;85.82
5703;BME280;2876;51.738;10.050;2023-03-20T22:56:55;99421.25;;;9.08;86.17
5703;BME280;2876;51.738;10.050;2023-03-20T23:02:57;99421.66;;;9.05;86.30
5703;BME280;2876;51.738;10.050;2023-03-20T23:09:16;99414.34;;;8.99;86.65
5703;BME280;2876;51.738;10.050;2023-03-20T23:15:18;99424.38;;;9.11;86.40
5703;BME280;2876;51.738;10.050;2023-03-20T23:21:20;99424.66;;;9.17;86.23
5703;BME280;2876;51.738;10.050;2023-03-20T23:27:22;99424.09;;;9.21;85.82
5703;BME280;2876;51.738;10.050;2023-03-20T23:33:24;99415.06;;;9.44;85.17
5703;BME280;2876;51.738;10.050;2023-03-20T23:39:26;99422.31;;;9.28;85.98
5703;BME280;2876;51.738;10.050;2023-03-20T23:45:28;99412.09;;;9.32;85.94
5703;BME280;2876;51.738;10.050;2023-03-20T23:51:30;99409.56;;;9.30;86.02
5703;BME280;2876;51.738;10.050;2023-03-20T23:57:32;99410.13;;;9.40;85.91
